Time;durP1;ratioP1;P1;durP2;ratioP2;P2;SDS_P1;SDS_P2;PMS_P1;PMS_P2;Temp;Humidity;BMP_temperature;BMP_pressure;BME280_temperature;BME280_humidity;BME280_pressure;Samples;Min_cycle;Max_cycle;Signal;HPM_P1;HPM_P2
2023/01/15 00:00:17;;;;;;;0.30;0.20;;;;;;;11.84;100.00;98702.00;5031963;28;20956;-56
2023/01/15 00:02:44;;;;;;;0.30;0.20;;;;;;;11.91;100.00;98696.28;5032093;28;20486;-55
2023/01/15 00:05:10;;;;;;;0.40;0.30;;;;;;;11.82;100.00;98695.03;5032061;28;20519;-56
2023/01/15 00:07:36;;;;;;;0.30;0.20;;;;;;;11.86;100.00;98683.25;5024560;28;20468;-56
2023/01/15 00:10:03;;;;;;;0.50;0.40;;;;;;;12.01;100.00;98687.66;5028853;28;20451;-55
2023/01/15 00:12:32;;;;;;;0.40;0.30;;;;;;;12.08;100.00;98688.16;5034377;28;20451;-56
2023/01/15 00:14:59;;;;;;;0.33;0.20;;;;;;;11.88;100.00;98683.16;5038517;28;20451;-56
2023/01/15 00:17:25;;;;;;;0.40;0.30;;;;;;;11.79;100.00;98689.91;5038592;28;20446;-56
2023/01/15 00:19:52;;;;;;;0.30;0.20;;;;;;;11.89;100.00;98696.38;5038871;28;20813;-56
2023/01/15 00:22:18;;;;;;;0.40;0.20;;;;;;;11.84;100.00;98680.69;5031658;28;20954;-55
2023/01/15 00:27:38;;;;;;;0.30;0.20;;;;;;;11.79;100.00;98680.13;5033059;28;20479;-56
2023/01/15 00:30:07;;;;;;;0.30;0.20;;;;;;;11.75;100.00;98698.97;5038606;28;20450;-56
2023/01/15 00:32:33;;;;;;;0.40;0.30;;;;;;;11.54;100.00;98698.44;5038557;28;20451;-56
2023/01/15 00:35:00;;;;;;;1.37;0.30;;;;;;;11.43;100.00;98701.72;5029860;28;20811;-56
2023/01/15 00:37:27;;;;;;;0.30;0.20;;;;;;;11.40;100.00;98703.69;5034094;28;20479;-56
2023/01/15 00:39:53;;;;;;;0.30;0.30;;;;;;;11.36;100.00;98700.34;5038520;28;20466;-56
2023/01/15 00:42:19;;;;;;;0.40;0.40;;;;;;;11.39;100.00;98702.00;5025569;28;20459;-56
2023/01/15 00:44:46;;;;;;;0.40;0.30;;;;;;;11.34;100.00;98690.72;5038162;28;20980;-56
2023/01/15 00:47:15;;;;;;;0.30;0.20;;;;;;;11.25;100.00;98697.47;5038134;28;20456;-56
2023/01/15 00:49:42;;;;;;;0.30;0.20;;;;;;;11.32;100.00;98692.63;5036209;28;20459;-56
2023/01/15 00:52:10;;;;;;;0.30;0.20;;;;;;;11.28;100.00;98689.28;5038169;28;20451;-56
2023/01/15 00:54:37;;;;;;;0.30;0.20;;;;;;;11.21;100.00;98695.91;5033484;28;20443;-56
2023/01/15 00:57:04;;;;;;;0.30;0.20;;;;;;;11.20;100.00;98689.72;5038018;28;20448;-56
2023/01/15 00:59:30;;;;;;;0.40;0.30;;;;;;;11.21;100.00;98694.09;5038394;28;20448;-55
2023/01/15 01:01:57;;;;;;;0.30;0.23;;;;;;;11.22;100.00;98700.28;5038031;28;21012;-56
2023/01/15 01:04:24;;;;;;;0.30;0.20;;;;;;;11.28;100.00;98722.06;5038230;28;20875;-56
2023/01/15 01:06:51;;;;;;;0.40;0.30;;;;;;;11.33;100.00;98711.16;5023842;28;20459;-56
2023/01/15 01:09:17;;;;;;;0.30;0.20;;;;;;;11.36;100.00;98718.09;5038084;28;20479;-56
2023/01/15 01:11:44;;;;;;;0.40;0.23;;;;;;;11.28;100.00;98711.44;5037883;28;20447;-56
2023/01/15 01:14:11;;;;;;;0.40;0.30;;;;;;;11.40;100.00;98715.19;5038501;28;20451;-55
2023/01/15 01:16:39;;;;;;;0.30;0.20;;;;;;;11.22;100.00;98718.88;5038063;28;20447;-56
2023/01/15 01:19:20;;;;;;;0.40;0.40;;;;;;;11.23;100.00;98718.78;5038110;28;20471;-55
2023/01/15 01:21:47;;;;;;;4.10;0.30;;;;;;;10.96;100.00;98721.22;5025086;28;20876;-56
2023/01/15 01:24:17;;;;;;;0.30;0.20;;;;;;;11.10;100.00;98723.13;5035257;28;20455;-55
2023/01/15 01:26:45;;;;;;;0.30;0.20;;;;;;;11.13;100.00;98730.06;5032932;28;20459;-56
2023/01/15 01:29:13;;;;;;;0.30;0.20;;;;;;;10.99;100.00;98728.16;5029993;28;20475;-55
2023/01/15 01:31:39;;;;;;;0.30;0.20;;;;;;;10.80;100.00;98732.75;5034888;28;20454;-55
2023/01/15 01:34:06;;;;;;;0.30;0.20;;;;;;;10.77;100.00;98738.25;5033220;28;20493;-56
2023/01/15 01:36:34;;;;;;;0.30;0.20;;;;;;;10.82;100.00;98742.38;5022980;28;20505;-54
2023/01/15 01:39:02;;;;;;;0.30;0.20;;;;;;;10.70;100.00;98748.38;5034357;28;21010;-55
2023/01/15 01:41:29;;;;;;;0.30;0.20;;;;;;;10.57;100.00;98752.63;5029416;28;20463;-55
2023/01/15 01:44:00;;;;;;;0.50;0.40;;;;;;;10.73;100.00;98760.63;5030248;28;20454;-55
2023/01/15 01:46:29;;;;;;;0.30;0.20;;;;;;;10.60;100.00;98765.75;5034496;28;20518;-55
2023/01/15 01:49:08;;;;;;;0.30;0.20;;;;;;;10.54;100.00;98777.53;5034233;28;20468;-55
2023/01/15 01:51:40;;;;;;;0.30;0.20;;;;;;;10.51;100.00;98774.19;5034704;28;20475;-55
2023/01/15 01:54:09;;;;;;;0.30;0.20;;;;;;;10.31;100.00;98777.91;5034438;28;20964;-56
2023/01/15 01:56:36;;;;;;;1.60;0.40;;;;;;;10.39;100.00;98776.53;5029708;28;20474;-55
2023/01/15 01:59:05;;;;;;;14.50;0.70;;;;;;;10.33;100.00;98773.34;5034158;28;20468;-54
2023/01/15 02:01:32;;;;;;;0.30;0.30;;;;;;;10.35;100.00;98772.34;5034143;28;20448;-53
2023/01/15 02:03:58;;;;;;;1.93;0.70;;;;;;;10.23;100.00;98769.44;5025148;28;20888;-55
2023/01/15 02:06:26;;;;;;;0.30;0.20;;;;;;;10.30;100.00;98776.19;5024339;28;20488;-54
2023/01/15 02:08:53;;;;;;;0.30;0.20;;;;;;;10.19;100.00;98781.16;5034308;28;20478;-54
2023/01/15 02:11:21;;;;;;;0.43;0.20;;;;;;;10.26;100.00;98785.22;5034025;28;20525;-54
2023/01/15 02:13:57;;;;;;;0.47;0.30;;;;;;;10.12;100.00;98788.56;5034015;28;20459;-54
2023/01/15 02:16:42;;;;;;;0.30;0.20;;;;;;;10.16;100.00;98803.41;5033861;28;20439;-54
2023/01/15 02:19:45;;;;;;;0.30;0.20;;;;;;;10.28;100.00;98805.47;5034048;28;20521;-54
2023/01/15 02:22:35;;;;;;;5.10;0.30;;;;;;;10.21;100.00;98806.72;5022223;28;20455;-54
2023/01/15 02:25:05;;;;;;;0.30;0.20;;;;;;;10.30;100.00;98808.91;5000457;28;20487;-54
2023/01/15 02:27:32;;;;;;;0.30;0.20;;;;;;;10.21;100.00;98812.03;5033775;28;20471;-54
2023/01/15 02:30:20;;;;;;;0.30;0.20;;;;;;;10.08;100.00;98822.38;5033813;28;20534;-55
2023/01/15 02:32:52;;;;;;;0.30;0.20;;;;;;;9.97;100.00;98826.50;5033636;28;20443;-55
2023/01/15 02:35:36;;;;;;;0.50;0.37;;;;;;;10.01;100.00;98817.47;5022166;28;20448;-54
2023/01/15 02:38:07;;;;;;;0.30;0.20;;;;;;;9.99;100.00;98819.31;5033442;28;20491;-55
2023/01/15 02:40:36;;;;;;;0.30;0.20;;;;;;;9.97;100.00;98818.53;5033490;28;20444;-54
2023/01/15 02:43:05;;;;;;;1.63;0.50;;;;;;;9.84;100.00;98814.75;5023143;28;20511;-54
2023/01/15 02:45:37;;;;;;;0.30;0.20;;;;;;;9.78;100.00;98824.75;5033237;28;20494;-54
2023/01/15 02:48:11;;;;;;;0.57;0.40;;;;;;;9.77;100.00;98817.72;5033562;28;20498;-54
2023/01/15 02:51:02;;;;;;;0.50;0.40;;;;;;;9.69;100.00;98819.03;5030095;28;20957;-54
2023/01/15 02:53:30;;;;;;;0.30;0.20;;;;;;;9.54;100.00;98817.97;5028494;28;20452;-54
2023/01/15 02:56:06;;;;;;;0.40;0.20;;;;;;;9.44;100.00;98816.69;5033213;28;20787;-55
2023/01/15 02:58:36;;;;;;;0.30;0.20;;;;;;;9.40;100.00;98823.94;5033294;28;20471;-55
2023/01/15 03:01:10;;;;;;;0.30;0.20;;;;;;;9.26;100.00;98820.22;5033154;28;20942;-55
2023/01/15 03:03:50;;;;;;;0.30;0.20;;;;;;;9.23;100.00;98828.31;5033202;28;20536;-54
2023/01/15 03:06:35;;;;;;;0.40;0.30;;;;;;;9.29;100.00;98822.72;5032982;28;21015;-54
2023/01/15 03:09:03;;;;;;;0.30;0.20;;;;;;;9.22;100.00;98821.31;5012325;28;20562;-54
2023/01/15 03:11:36;;;;;;;0.30;0.20;;;;;;;8.89;100.00;98829.84;5033058;28;20502;-54
2023/01/15 03:14:13;;;;;;;0.30;0.20;;;;;;;9.10;100.00;98835.97;5033320;28;20447;-55
2023/01/15 03:16:52;;;;;;;0.30;0.20;;;;;;;9.10;100.00;98836.84;5029427;28;20451;-55
2023/01/15 03:19:37;;;;;;;0.30;0.20;;;;;;;8.90;100.00;98834.22;5026058;28;20463;-55
2023/01/15 03:22:12;;;;;;;0.40;0.20;;;;;;;8.81;100.00;98835.53;5010656;28;20443;-55
2023/01/15 03:24:53;;;;;;;0.30;0.20;;;;;;;8.87;100.00;98837.88;5032433;28;21008;-55
2023/01/15 03:27:20;;;;;;;0.43;0.43;;;;;;;8.81;100.00;98851.41;5032611;28;20468;-54
2023/01/15 03:29:51;;;;;;;0.30;0.20;;;;;;;8.73;100.00;98850.88;5032677;28;20448;-54
2023/01/15 03:32:19;;;;;;;0.30;0.20;;;;;;;8.92;100.00;98844.78;5022481;28;20459;-55
2023/01/15 03:34:50;;;;;;;0.30;0.20;;;;;;;8.67;100.00;98858.25;5025206;28;20822;-55
2023/01/15 03:37:19;;;;;;;0.30;0.20;;;;;;;8.79;100.00;98863.00;5026504;28;20448;-55
2023/01/15 03:39:46;;;;;;;0.50;0.30;;;;;;;8.83;100.00;98859.28;5032454;28;20505;-55
2023/01/15 03:42:41;;;;;;;0.30;0.20;;;;;;;8.74;100.00;98865.00;5021992;28;20452;-55
2023/01/15 03:45:07;;;;;;;0.40;0.20;;;;;;;8.88;100.00;98859.94;5025331;28;20453;-55
2023/01/15 03:48:01;;;;;;;0.30;0.20;;;;;;;8.86;100.00;98862.66;5030418;28;20472;-55
2023/01/15 03:50:36;;;;;;;0.30;0.20;;;;;;;8.80;100.00;98864.75;5032478;28;20444;-55
2023/01/15 03:53:10;;;;;;;0.30;0.20;;;;;;;8.83;100.00;98870.75;5032497;28;20446;-54
2023/01/15 03:55:59;;;;;;;0.40;0.40;;;;;;;8.64;100.00;98876.94;5027341;28;20536;-55
2023/01/15 03:58:44;;;;;;;0.30;0.20;;;;;;;8.76;100.00;98876.38;5027101;28;20464;-54
2023/01/15 04:01:15;;;;;;;0.30;0.20;;;;;;;8.76;100.00;98887.84;5032383;28;20443;-54
2023/01/15 04:03:43;;;;;;;0.30;0.20;;;;;;;8.72;100.00;98880.94;5032110;28;20533;-55
2023/01/15 04:06:10;;;;;;;0.30;0.20;;;;;;;8.67;100.00;98879.44;5032200;28;20491;-55
2023/01/15 04:08:40;;;;;;;0.30;0.20;;;;;;;8.54;100.00;98887.91;5031864;28;20869;-55
2023/01/15 04:11:07;;;;;;;0.30;0.20;;;;;;;8.51;100.00;98881.91;5021272;28;20453;-55
2023/01/15 04:13:33;;;;;;;0.30;0.20;;;;;;;8.53;100.00;98893.28;5031243;28;20967;-54
2023/01/15 04:16:01;;;;;;;0.30;0.20;;;;;;;8.51;100.00;98897.78;5032194;28;20447;-55
2023/01/15 04:18:27;;;;;;;0.30;0.20;;;;;;;8.77;100.00;98902.81;5032015;28;20468;-55
2023/01/15 04:20:54;;;;;;;0.30;0.20;;;;;;;8.56;100.00;98907.25;5032043;28;20992;-55
2023/01/15 04:23:21;;;;;;;0.30;0.20;;;;;;;8.63;100.00;98897.22;5005963;28;20505;-55
2023/01/15 04:25:48;;;;;;;0.30;0.20;;;;;;;8.58;100.00;98900.09;5021712;28;20485;-54
2023/01/15 04:28:14;;;;;;;0.50;0.20;;;;;;;8.71;100.00;98896.91;5031928;28;20988;-55
2023/01/15 04:30:42;;;;;;;0.30;0.20;;;;;;;8.68;100.00;98897.91;5031806;28;20964;-55
2023/01/15 04:33:08;;;;;;;0.30;0.20;;;;;;;8.60;100.00;98895.59;5032144;28;20451;-55
2023/01/15 04:35:36;;;;;;;0.30;0.20;;;;;;;8.50;100.00;98902.22;5018428;28;20444;-55
2023/01/15 04:38:03;;;;;;;0.30;0.20;;;;;;;8.53;100.00;98906.53;5028690;28;20499;-55
2023/01/15 04:45:59;;;;;;;0.30;0.20;;;;;;;8.53;100.00;98922.41;5031754;28;20552;-55
2023/01/15 04:48:26;;;;;;;0.30;0.20;;;;;;;8.48;100.00;98924.38;5031750;28;20467;-55
2023/01/15 04:50:53;;;;;;;0.30;0.20;;;;;;;8.48;100.00;98916.44;5031903;28;20447;-55
2023/01/15 04:53:20;;;;;;;0.30;0.20;;;;;;;8.59;100.00;98907.09;5024995;28;20614;-55
2023/01/15 04:55:46;;;;;;;0.57;0.40;;;;;;;8.49;100.00;98912.84;5031252;28;20444;-55
2023/01/15 04:58:13;;;;;;;0.30;0.20;;;;;;;8.49;100.00;98912.84;5031803;28;20516;-55
2023/01/15 05:00:39;;;;;;;0.30;0.20;;;;;;;8.43;100.00;98915.78;5034426;28;20940;-55
2023/01/15 05:03:06;;;;;;;0.30;0.20;;;;;;;8.40;100.00;98916.78;5035471;28;20451;-55
2023/01/15 05:05:32;;;;;;;0.30;0.20;;;;;;;8.71;100.00;98915.47;5035648;28;20914;-55
2023/01/15 05:07:58;;;;;;;0.30;0.20;;;;;;;8.62;100.00;98922.00;5029661;28;20549;-55
2023/01/15 05:10:25;;;;;;;0.30;0.20;;;;;;;8.55;100.00;98925.84;5035280;28;20455;-55
2023/01/15 05:12:51;;;;;;;0.40;0.30;;;;;;;8.51;100.00;98922.47;5035355;28;20823;-53
2023/01/15 05:15:18;;;;;;;0.30;0.20;;;;;;;8.46;100.00;98928.88;5035183;28;20451;-55
2023/01/15 05:17:44;;;;;;;0.30;0.20;;;;;;;8.40;100.00;98934.44;5034926;28;20478;-55
2023/01/15 05:20:11;;;;;;;0.40;0.30;;;;;;;8.30;100.00;98949.81;5035241;28;20451;-55
2023/01/15 05:22:37;;;;;;;0.70;0.30;;;;;;;8.35;100.00;98953.16;5030853;28;20455;-55
2023/01/15 05:25:04;;;;;;;30.03;0.63;;;;;;;8.33;100.00;98962.91;5035018;28;20448;-55
2023/01/15 05:27:30;;;;;;;0.40;0.30;;;;;;;8.16;100.00;98957.44;5034824;28;20495;-55
2023/01/15 05:29:57;;;;;;;0.30;0.20;;;;;;;8.23;100.00;98956.28;5034947;28;20486;-55
2023/01/15 05:32:23;;;;;;;0.30;0.20;;;;;;;8.17;100.00;98961.81;5034874;28;20867;-55
2023/01/15 05:34:49;;;;;;;0.30;0.20;;;;;;;8.13;100.00;98965.50;5026412;28;20493;-55
2023/01/15 05:37:16;;;;;;;0.30;0.10;;;;;;;8.17;100.00;98962.66;5028979;28;20460;-55
2023/01/15 05:39:42;;;;;;;0.30;0.20;;;;;;;8.09;100.00;98959.50;5035357;28;20951;-50
2023/01/15 05:42:10;;;;;;;0.30;0.20;;;;;;;8.13;100.00;98969.03;5025052;28;20532;-50
2023/01/15 05:44:37;;;;;;;0.30;0.20;;;;;;;8.09;100.00;98966.56;5034676;28;20933;-52
2023/01/15 05:47:06;;;;;;;0.30;0.20;;;;;;;8.14;100.00;98962.81;5034329;28;20499;-51
2023/01/15 05:49:33;;;;;;;0.30;0.20;;;;;;;8.11;100.00;98973.53;5029683;28;20461;-50
2023/01/15 05:52:00;;;;;;;0.30;0.20;;;;;;;8.22;100.00;98970.41;5034779;28;20454;-50
2023/01/15 05:54:29;;;;;;;0.30;0.20;;;;;;;8.14;100.00;98977.81;5034864;28;20455;-50
2023/01/15 05:56:56;;;;;;;0.30;0.20;;;;;;;8.02;100.00;98972.09;5034519;28;20816;-50
2023/01/15 05:59:25;;;;;;;0.30;0.20;;;;;;;8.10;100.00;98974.44;5034638;28;20476;-50
2023/01/15 06:01:52;;;;;;;0.30;0.20;;;;;;;8.05;100.00;98964.94;5034505;28;20459;-51
2023/01/15 06:04:20;;;;;;;0.30;0.20;;;;;;;8.09;100.00;98958.63;5025857;28;20561;-50
2023/01/15 06:06:49;;;;;;;0.30;0.20;;;;;;;8.15;100.00;98963.66;5031232;28;20530;-51
2023/01/15 06:09:15;;;;;;;0.30;0.20;;;;;;;8.13;100.00;98973.47;5034406;28;20475;-51
2023/01/15 06:11:42;;;;;;;0.30;0.20;;;;;;;8.10;100.00;98976.22;5033679;28;20447;-52
2023/01/15 06:14:11;;;;;;;0.30;0.20;;;;;;;8.01;100.00;98983.59;5034243;28;20459;-50
2023/01/15 06:16:37;;;;;;;0.30;0.20;;;;;;;7.97;100.00;98986.44;5033581;28;20505;-52
2023/01/15 06:19:08;;;;;;;0.30;0.20;;;;;;;7.98;100.00;98991.66;5026314;28;20554;-50
2023/01/15 06:21:34;;;;;;;0.30;0.20;;;;;;;7.88;100.00;98992.06;5019134;28;20466;-50
2023/01/15 06:24:01;;;;;;;0.30;0.20;;;;;;;7.96;100.00;98997.94;5014159;28;20492;-47
2023/01/15 06:26:28;;;;;;;0.73;0.20;;;;;;;7.79;100.00;98990.63;5026730;28;20481;-52
2023/01/15 06:28:55;;;;;;;0.60;0.40;;;;;;;7.84;100.00;99006.34;5016094;28;20473;-52
2023/01/15 06:31:25;;;;;;;0.30;0.20;;;;;;;7.95;100.00;99004.16;5019950;28;20513;-51
2023/01/15 06:33:51;;;;;;;0.30;0.20;;;;;;;7.91;100.00;99002.53;5022934;28;20549;-51
2023/01/15 06:36:20;;;;;;;0.30;0.20;;;;;;;7.78;100.00;99017.13;5020288;28;20463;-51
2023/01/15 06:38:47;;;;;;;0.30;0.20;;;;;;;7.92;100.00;99020.13;5023065;28;20531;-50
2023/01/15 06:49:34;;;;;;;0.30;0.20;;;;;;;7.69;100.00;99021.00;5017958;28;20477;-50
2023/01/15 06:52:03;;;;;;;0.30;0.20;;;;;;;7.66;100.00;99023.75;5026657;28;20471;-50
2023/01/15 06:54:29;;;;;;;0.30;0.20;;;;;;;7.51;100.00;99014.59;5030799;28;20471;-50
2023/01/15 06:56:56;;;;;;;0.30;0.20;;;;;;;7.47;100.00;99014.78;5033661;28;20455;-50
2023/01/15 06:59:22;;;;;;;0.30;0.20;;;;;;;7.50;100.00;99020.81;5024307;28;20831;-50
2023/01/15 07:01:49;;;;;;;0.30;0.20;;;;;;;7.49;100.00;99031.44;5033378;28;20444;-50
2023/01/15 07:04:15;;;;;;;0.40;0.20;;;;;;;7.39;100.00;99042.34;5031349;28;20459;-51
2023/01/15 07:06:42;;;;;;;0.30;0.20;;;;;;;7.32;100.00;99034.69;5021448;28;20480;-51
2023/01/15 07:09:08;;;;;;;0.30;0.10;;;;;;;7.18;100.00;99037.84;5016258;28;20477;-51
2023/01/15 07:11:48;;;;;;;0.30;0.20;;;;;;;7.28;100.00;99052.47;5017021;28;20456;-53
2023/01/15 07:14:19;;;;;;;0.30;0.10;;;;;;;7.26;100.00;99058.69;5024899;28;20483;-51
2023/01/15 07:16:46;;;;;;;0.30;0.10;;;;;;;7.24;100.00;99061.38;5020075;28;20449;-52
2023/01/15 07:19:13;;;;;;;0.30;0.20;;;;;;;7.30;100.00;99058.53;5025862;28;20482;-52
2023/01/15 07:21:40;;;;;;;0.30;0.20;;;;;;;7.31;100.00;99076.13;5013364;28;20457;-52
2023/01/15 07:24:08;;;;;;;0.30;0.20;;;;;;;7.30;100.00;99074.41;5013198;28;20456;-52
2023/01/15 07:26:34;;;;;;;0.30;0.20;;;;;;;7.37;100.00;99069.75;5000382;28;20559;-53
2023/01/15 07:29:01;;;;;;;0.30;0.20;;;;;;;7.32;100.00;99075.22;5026202;28;20472;-52
2023/01/15 07:31:29;;;;;;;0.40;0.30;;;;;;;7.25;100.00;99076.31;5033072;28;20458;-52
2023/01/15 07:33:57;;;;;;;0.60;0.60;;;;;;;7.17;100.00;99088.97;5026781;28;20543;-52
2023/01/15 07:36:24;;;;;;;0.40;0.30;;;;;;;7.24;100.00;99092.25;5000687;28;20453;-53
2023/01/15 07:38:51;;;;;;;0.30;0.20;;;;;;;7.42;100.00;99089.84;5013364;28;20527;-52
2023/01/15 07:49:49;;;;;;;0.60;0.20;;;;;;;7.35;100.00;99098.88;5011010;28;20457;-53
2023/01/15 07:52:20;;;;;;;0.77;0.37;;;;;;;7.26;100.00;99104.47;5021803;28;20451;-53
2023/01/15 07:54:48;;;;;;;0.30;0.20;;;;;;;7.40;100.00;99112.81;5024685;28;20964;-53
2023/01/15 07:57:20;;;;;;;0.97;0.30;;;;;;;7.78;100.00;99107.94;5032280;28;20475;-53
2023/01/15 07:59:47;;;;;;;0.70;0.20;;;;;;;7.68;100.00;99110.06;5032410;28;20498;-52
2023/01/15 08:02:13;;;;;;;0.30;0.20;;;;;;;7.40;100.00;99109.28;5032228;28;20965;-52
2023/01/15 08:04:40;;;;;;;0.33;0.20;;;;;;;7.43;100.00;99111.84;5032383;28;20447;-52
2023/01/15 08:07:07;;;;;;;0.50;0.50;;;;;;;7.84;100.00;99123.59;5030498;28;20497;-52
2023/01/15 08:09:34;;;;;;;0.30;0.20;;;;;;;7.63;100.00;99125.22;5032115;28;20435;-54
2023/01/15 08:17:36;;;;;;;0.40;0.30;;;;;;;7.79;100.00;99128.19;5024971;28;20462;-52
2023/01/15 08:20:04;;;;;;;0.40;0.20;;;;;;;7.91;100.00;99125.09;4993125;28;20449;-53
2023/01/15 08:22:30;;;;;;;0.40;0.23;;;;;;;7.89;100.00;99140.16;5019353;28;20824;-54
2023/01/15 08:24:57;;;;;;;0.30;0.20;;;;;;;7.71;100.00;99120.53;5005950;28;20458;-53
2023/01/15 08:27:24;;;;;;;0.30;0.20;;;;;;;7.51;100.00;99123.00;5031844;28;20570;-52
2023/01/15 08:29:50;;;;;;;0.50;0.20;;;;;;;7.55;100.00;99140.50;5032269;28;20845;-53
2023/01/15 08:32:16;;;;;;;0.33;0.20;;;;;;;7.53;100.00;99159.97;5018411;28;20455;-53
2023/01/15 08:34:43;;;;;;;0.30;0.20;;;;;;;7.71;100.00;99149.63;5015676;28;20453;-52
2023/01/15 08:37:09;;;;;;;0.30;0.20;;;;;;;8.08;100.00;99163.28;5029513;28;20502;-53
2023/01/15 08:39:36;;;;;;;0.30;0.20;;;;;;;7.75;100.00;99162.72;5036033;28;20447;-53
2023/01/15 08:42:02;;;;;;;0.30;0.20;;;;;;;7.70;100.00;99158.47;5026663;28;20448;-53
2023/01/15 08:44:29;;;;;;;0.50;0.47;;;;;;;7.63;100.00;99151.66;5036170;28;20474;-52
2023/01/15 08:46:55;;;;;;;0.40;0.40;;;;;;;7.68;100.00;99141.81;5035713;28;20996;-52
2023/01/15 08:49:22;;;;;;;1.27;0.40;;;;;;;7.87;100.00;99143.78;5035878;28;20474;-52
2023/01/15 08:51:50;;;;;;;0.30;0.20;;;;;;;7.58;100.00;99150.97;5035697;28;20506;-53
2023/01/15 08:54:19;;;;;;;0.30;0.20;;;;;;;7.69;100.00;99140.88;5023466;28;20484;-53
2023/01/15 08:56:46;;;;;;;0.40;0.20;;;;;;;7.46;100.00;99150.53;5035548;28;20827;-52
2023/01/15 08:59:13;;;;;;;0.30;0.20;;;;;;;7.40;100.00;99165.69;5027919;28;20490;-52
2023/01/15 09:01:40;;;;;;;0.30;0.23;;;;;;;7.37;100.00;99163.13;5030360;28;20444;-52
2023/01/15 09:04:08;;;;;;;0.77;0.30;;;;;;;7.48;100.00;99169.84;5035924;28;20471;-53
2023/01/15 09:06:34;;;;;;;0.40;0.30;;;;;;;7.48;100.00;99188.34;5035351;28;20450;-52
2023/01/15 09:09:01;;;;;;;0.30;0.20;;;;;;;7.29;100.00;99177.53;5035210;28;20468;-53
2023/01/15 09:11:27;;;;;;;0.40;0.20;;;;;;;7.53;100.00;99192.56;5035530;28;20478;-53
2023/01/15 09:13:54;;;;;;;0.30;0.20;;;;;;;7.45;100.00;99196.41;5035547;28;20498;-54
2023/01/15 09:16:20;;;;;;;0.30;0.20;;;;;;;7.48;100.00;99196.28;5020058;28;20448;-53
2023/01/15 09:18:47;;;;;;;1.50;0.70;;;;;;;7.51;100.00;99177.66;5024412;28;20506;-52
2023/01/15 09:21:13;;;;;;;0.30;0.20;;;;;;;7.66;100.00;99196.50;5035556;28;20505;-52
2023/01/15 09:23:41;;;;;;;0.30;0.20;;;;;;;8.00;100.00;99201.50;5035284;28;20444;-53
2023/01/15 09:26:25;;;;;;;5.03;1.07;;;;;;;7.79;100.00;99207.53;5035021;28;20460;-52
2023/01/15 09:28:52;;;;;;;0.30;0.20;;;;;;;7.95;100.00;99215.81;5035444;28;20472;-52
2023/01/15 09:31:19;;;;;;;0.30;0.10;;;;;;;7.74;100.00;99206.84;5016392;28;20452;-53
2023/01/15 09:33:45;;;;;;;0.30;0.10;;;;;;;7.68;100.00;99220.28;5015364;28;20440;-52
2023/01/15 09:36:17;;;;;;;0.30;0.20;;;;;;;7.66;99.77;99222.97;5020845;28;20482;-52
2023/01/15 09:38:44;;;;;;;1.17;0.60;;;;;;;7.65;99.26;99236.22;5034960;28;20565;-52
2023/01/15 09:42:04;;;;;;;0.60;0.30;;;;;;;7.68;100.00;99234.38;5034945;28;20452;-52
2023/01/15 09:44:20;;;;;;;0.30;0.20;;;;;;;7.42;100.00;99248.47;5034733;28;20443;-52
2023/01/15 09:47:14;;;;;;;0.30;0.20;;;;;;;7.60;98.79;99254.91;5034214;28;20470;-53
2023/01/15 09:49:43;;;;;;;0.37;0.27;;;;;;;7.46;100.00;99251.00;4995836;28;20432;-52
2023/01/15 09:52:42;;;;;;;0.30;0.10;;;;;;;7.53;98.25;99252.50;5028076;28;20448;-52
2023/01/15 09:55:19;;;;;;;0.30;0.20;;;;;;;7.51;97.96;99257.84;5033446;28;20450;-52
2023/01/15 09:57:50;;;;;;;0.30;0.20;;;;;;;7.49;98.11;99262.31;5023575;28;20464;-52
2023/01/15 10:00:23;;;;;;;0.30;0.20;;;;;;;7.32;97.94;99272.59;5034516;28;20447;-52
2023/01/15 10:02:59;;;;;;;0.30;0.20;;;;;;;7.51;97.58;99263.13;5034576;28;20455;-52
2023/01/15 10:05:37;;;;;;;0.30;0.20;;;;;;;7.42;97.99;99274.91;5029005;28;20451;-52
2023/01/15 10:08:09;;;;;;;0.30;0.20;;;;;;;7.42;97.76;99274.03;5028199;28;20491;-52
2023/01/15 10:10:51;;;;;;;0.30;0.20;;;;;;;7.39;98.06;99276.75;5026414;28;20849;-52
2023/01/15 10:13:44;;;;;;;0.30;0.20;;;;;;;7.26;98.07;99289.47;5014276;28;20437;-52
2023/01/15 10:16:17;;;;;;;0.30;0.30;;;;;;;7.32;98.44;99297.25;5027716;28;20506;-52
2023/01/15 10:18:44;;;;;;;0.30;0.20;;;;;;;7.31;98.82;99294.66;5014426;28;20511;-53
2023/01/15 10:21:31;;;;;;;0.40;0.40;;;;;;;7.24;98.42;99311.59;5029642;28;20462;-52
2023/01/15 10:24:10;;;;;;;0.30;0.20;;;;;;;7.15;99.30;99312.75;5033975;28;20454;-52
2023/01/15 10:26:44;;;;;;;0.30;0.20;;;;;;;7.17;97.78;99310.94;5026885;28;20799;-53
2023/01/15 10:29:46;;;;;;;0.30;0.20;;;;;;;7.28;97.58;99302.69;5011023;28;20843;-52
2023/01/15 10:32:23;;;;;;;0.30;0.20;;;;;;;7.09;98.03;99292.66;5033808;28;20458;-52
2023/01/15 10:35:27;;;;;;;0.40;0.30;;;;;;;7.27;96.96;99296.53;5009849;28;20523;-52
2023/01/15 10:38:04;;;;;;;0.40;0.30;;;;;;;7.15;97.12;99281.06;5033641;28;20471;-53
2023/01/15 10:40:56;;;;;;;0.30;0.20;;;;;;;7.10;97.16;99277.66;5020498;28;20856;-53
2023/01/15 10:43:34;;;;;;;0.30;0.10;;;;;;;7.22;96.88;99266.72;5034042;28;20959;-52
2023/01/15 10:46:09;;;;;;;0.30;0.20;;;;;;;7.12;96.19;99275.84;5033786;28;20928;-52
2023/01/15 10:48:43;;;;;;;4.37;0.30;;;;;;;7.27;95.80;99274.53;5033534;28;20519;-52
2023/01/15 10:51:17;;;;;;;0.47;0.20;;;;;;;7.12;96.75;99270.56;5025980;28;20440;-52
2023/01/15 10:53:55;;;;;;;0.30;0.20;;;;;;;7.03;95.77;99281.44;5029531;28;20476;-52
2023/01/15 10:56:32;;;;;;;0.30;0.30;;;;;;;7.14;95.90;99276.69;5033839;28;20455;-53
2023/01/15 10:59:11;;;;;;;0.30;0.20;;;;;;;6.98;95.96;99278.03;5033530;28;20522;-53
2023/01/15 11:01:39;;;;;;;0.30;0.20;;;;;;;6.88;95.88;99272.19;5033625;28;20439;-53
2023/01/15 11:04:14;;;;;;;0.30;0.20;;;;;;;6.93;95.56;99279.97;5033719;28;20792;-52
2023/01/15 11:06:41;;;;;;;0.40;0.30;;;;;;;6.74;97.69;99275.25;5031262;28;20454;-52
2023/01/15 11:09:18;;;;;;;0.30;0.20;;;;;;;6.86;97.51;99271.38;5012976;28;20520;-53
2023/01/15 11:20:18;;;;;;;0.60;0.60;;;;;;;7.39;96.84;99284.69;5018265;28;20455;-52
2023/01/15 11:22:44;;;;;;;0.30;0.10;;;;;;;7.59;96.65;99290.22;5020736;28;20494;-52
2023/01/15 11:25:12;;;;;;;0.30;0.20;;;;;;;7.69;94.81;99296.06;5022470;28;20499;-53
2023/01/15 11:27:39;;;;;;;0.30;0.20;;;;;;;7.71;94.75;99302.16;5026146;28;21017;-52
2023/01/15 11:30:23;;;;;;;0.30;0.20;;;;;;;7.62;93.49;99291.88;5021157;28;20459;-52
2023/01/15 11:32:54;;;;;;;0.47;0.40;;;;;;;7.75;93.22;99293.22;5023759;28;20452;-53
2023/01/15 11:35:21;;;;;;;0.30;0.20;;;;;;;7.67;94.04;99290.81;5001960;28;20445;-52
2023/01/15 11:37:47;;;;;;;0.30;0.20;;;;;;;7.89;93.57;99264.50;5016750;28;20484;-52
2023/01/15 11:40:17;;;;;;;0.30;0.20;;;;;;;7.96;92.95;99284.56;5017574;28;20465;-52
2023/01/15 11:51:14;;;;;;;1.13;0.73;;;;;;;8.25;92.29;99257.06;5012238;28;20448;-53
2023/01/15 11:53:48;;;;;;;0.30;0.20;;;;;;;8.15;92.59;99257.44;5015182;28;20476;-53
2023/01/15 11:56:18;;;;;;;0.30;0.20;;;;;;;8.25;92.01;99270.31;5021962;28;20463;-52
2023/01/15 11:58:48;;;;;;;0.30;0.10;;;;;;;8.47;91.11;99264.25;5017105;28;20479;-52
2023/01/15 12:01:36;;;;;;;0.30;0.20;;;;;;;8.38;91.74;99261.97;5025629;28;20931;-52
2023/01/15 12:04:06;;;;;;;0.30;0.20;;;;;;;8.50;90.84;99257.09;5015323;28;20443;-54
2023/01/15 12:06:36;;;;;;;0.30;0.20;;;;;;;8.49;89.46;99260.63;5021884;28;20548;-52
2023/01/15 12:09:27;;;;;;;0.70;0.60;;;;;;;8.43;90.28;99244.97;5012289;28;20492;-52
2023/01/15 12:11:56;;;;;;;1.50;0.40;;;;;;;8.58;90.36;99248.84;5025533;28;20448;-53
2023/01/15 12:15:00;;;;;;;0.70;0.50;;;;;;;8.85;89.29;99226.59;5019730;28;20472;-53
2023/01/15 12:17:54;;;;;;;6.40;1.10;;;;;;;8.72;89.89;99235.94;5012090;28;21063;-52
2023/01/15 12:20:27;;;;;;;9.73;0.40;;;;;;;8.83;89.98;99232.88;4998353;28;20444;-52
2023/01/15 12:22:59;;;;;;;0.57;0.30;;;;;;;8.78;88.20;99226.91;5015567;28;20990;-52
2023/01/15 12:25:35;;;;;;;0.37;0.20;;;;;;;8.83;86.32;99217.84;5032582;28;20451;-52
2023/01/15 12:28:26;;;;;;;0.30;0.20;;;;;;;8.64;85.90;99214.19;5032082;28;20490;-53
2023/01/15 12:31:15;;;;;;;0.30;0.20;;;;;;;8.56;86.97;99217.13;5017180;28;20480;-53
2023/01/15 12:33:47;;;;;;;2.27;0.47;;;;;;;8.32;85.90;99210.03;5023329;28;20538;-52
2023/01/15 12:36:20;;;;;;;1.00;0.50;;;;;;;8.64;85.89;99194.78;5032071;28;20555;-52
2023/01/15 12:38:50;;;;;;;0.30;0.20;;;;;;;8.54;86.36;99199.56;5016334;28;20575;-52